sensor_id;sensor_type;location;lat;lon;timestamp;P1;durP1;ratioP1;P2;durP2;ratioP2
7255;SDS011;3669;49.200;9.242;2024-02-21T00:02:21;7.55;;;5.15;;
7255;SDS011;3669;49.200;9.242;2024-02-21T00:04:48;8.63;;;5.35;;
7255;SDS011;3669;49.200;9.242;2024-02-21T00:07:15;6.88;;;5.47;;
7255;SDS011;3669;49.200;9.242;2024-02-21T00:09:42;7.82;;;5.85;;
7255;SDS011;3669;49.200;9.242;2024-02-21T00:12:09;8.55;;;5.43;;
7255;SDS011;3669;49.200;9.242;2024-02-21T00:14:36;7.15;;;5.90;;
7255;SDS011;3669;49.200;9.242;2024-02-21T00:17:03;6.80;;;5.68;;
7255;SDS011;3669;49.200;9.242;2024-02-21T00:19:31;7.90;;;5.20;;
7255;SDS011;3669;49.200;9.242;2024-02-21T00:21:58;6.07;;;5.47;;
7255;SDS011;3669;49.200;9.242;2024-02-21T00:24:25;8.00;;;4.88;;
7255;SDS011;3669;49.200;9.242;2024-02-21T00:26:53;6.15;;;5.43;;
7255;SDS011;3669;49.200;9.242;2024-02-21T00:29:21;9.57;;;5.55;;
7255;SDS011;3669;49.200;9.242;2024-02-21T00:31:48;6.15;;;5.20;;
7255;SDS011;3669;49.200;9.242;2024-02-21T00:34:16;8.38;;;5.03;;
7255;SDS011;3669;49.200;9.242;2024-02-21T00:36:43;7.43;;;4.90;;
7255;SDS011;3669;49.200;9.242;2024-02-21T00:39:11;9.75;;;5.65;;
7255;SDS011;3669;49.200;9.242;2024-02-21T00:41:38;5.78;;;4.32;;
7255;SDS011;3669;49.200;9.242;2024-02-21T00:44:05;6.38;;;5.28;;
7255;SDS011;3669;49.200;9.242;2024-02-21T00:46:32;8.38;;;4.93;;
7255;SDS011;3669;49.200;9.242;2024-02-21T00:48:59;6.05;;;4.72;;
7255;SDS011;3669;49.200;9.242;2024-02-21T00:51:26;7.90;;;4.80;;
7255;SDS011;3669;49.200;9.242;2024-02-21T00:53:55;7.63;;;5.50;;
7255;SDS011;3669;49.200;9.242;2024-02-21T00:56:22;10.02;;;7.13;;
7255;SDS011;3669;49.200;9.242;2024-02-21T00:58:49;7.50;;;5.10;;
7255;SDS011;3669;49.200;9.242;2024-02-21T01:01:25;5.88;;;4.95;;
7255;SDS011;3669;49.200;9.242;2024-02-21T01:03:54;6.95;;;5.45;;
7255;SDS011;3669;49.200;9.242;2024-02-21T01:06:21;6.38;;;5.22;;
7255;SDS011;3669;49.200;9.242;2024-02-21T01:08:49;9.00;;;5.53;;
7255;SDS011;3669;49.200;9.242;2024-02-21T01:11:16;13.93;;;12.65;;
7255;SDS011;3669;49.200;9.242;2024-02-21T01:13:43;7.32;;;4.68;;
7255;SDS011;3669;49.200;9.242;2024-02-21T01:16:11;5.05;;;4.57;;
7255;SDS011;3669;49.200;9.242;2024-02-21T01:18:41;5.93;;;5.30;;
7255;SDS011;3669;49.200;9.242;2024-02-21T01:21:08;8.48;;;5.68;;
7255;SDS011;3669;49.200;9.242;2024-02-21T01:23:36;9.60;;;5.30;;
7255;SDS011;3669;49.200;9.242;2024-02-21T01:26:04;6.63;;;5.28;;
7255;SDS011;3669;49.200;9.242;2024-02-21T01:28:34;9.13;;;5.20;;
7255;SDS011;3669;49.200;9.242;2024-02-21T01:31:01;7.38;;;4.68;;
7255;SDS011;3669;49.200;9.242;2024-02-21T01:33:29;7.03;;;5.32;;
7255;SDS011;3669;49.200;9.242;2024-02-21T01:36:01;7.28;;;4.70;;
7255;SDS011;3669;49.200;9.242;2024-02-21T01:38:28;6.75;;;5.00;;
7255;SDS011;3669;49.200;9.242;2024-02-21T01:40:55;7.15;;;5.03;;
7255;SDS011;3669;49.200;9.242;2024-02-21T01:43:23;6.43;;;4.55;;
7255;SDS011;3669;49.200;9.242;2024-02-21T01:45:52;5.53;;;4.75;;
7255;SDS011;3669;49.200;9.242;2024-02-21T01:48:28;7.45;;;4.85;;
7255;SDS011;3669;49.200;9.242;2024-02-21T01:50:55;6.72;;;5.07;;
7255;SDS011;3669;49.200;9.242;2024-02-21T01:53:42;6.55;;;4.93;;
7255;SDS011;3669;49.200;9.242;2024-02-21T01:56:10;6.13;;;4.95;;
7255;SDS011;3669;49.200;9.242;2024-02-21T01:58:37;6.70;;;4.78;;
7255;SDS011;3669;49.200;9.242;2024-02-21T02:01:06;6.00;;;4.68;;
7255;SDS011;3669;49.200;9.242;2024-02-21T02:03:33;6.45;;;5.05;;
7255;SDS011;3669;49.200;9.242;2024-02-21T02:06:00;5.70;;;4.82;;
7255;SDS011;3669;49.200;9.242;2024-02-21T02:08:27;16.83;;;15.40;;
7255;SDS011;3669;49.200;9.242;2024-02-21T02:10:54;6.47;;;4.60;;
7255;SDS011;3669;49.200;9.242;2024-02-21T02:13:21;5.30;;;4.38;;
7255;SDS011;3669;49.200;9.242;2024-02-21T02:15:48;26.42;;;24.80;;
7255;SDS011;3669;49.200;9.242;2024-02-21T02:18:16;25.98;;;24.27;;
7255;SDS011;3669;49.200;9.242;2024-02-21T02:20:45;18.48;;;17.40;;
7255;SDS011;3669;49.200;9.242;2024-02-21T02:23:29;14.27;;;13.35;;
7255;SDS011;3669;49.200;9.242;2024-02-21T02:25:57;33.35;;;31.38;;
7255;SDS011;3669;49.200;9.242;2024-02-21T02:28:24;32.35;;;30.10;;
7255;SDS011;3669;49.200;9.242;2024-02-21T02:30:51;28.17;;;26.52;;
7255;SDS011;3669;49.200;9.242;2024-02-21T02:33:18;22.95;;;21.42;;
7255;SDS011;3669;49.200;9.242;2024-02-21T02:35:45;9.63;;;8.30;;
7255;SDS011;3669;49.200;9.242;2024-02-21T02:38:12;8.15;;;5.50;;
7255;SDS011;3669;49.200;9.242;2024-02-21T02:40:39;5.97;;;4.95;;
7255;SDS011;3669;49.200;9.242;2024-02-21T02:43:07;6.35;;;4.57;;
7255;SDS011;3669;49.200;9.242;2024-02-21T02:45:34;5.97;;;4.47;;
7255;SDS011;3669;49.200;9.242;2024-02-21T02:48:01;6.78;;;5.68;;
7255;SDS011;3669;49.200;9.242;2024-02-21T02:50:28;6.30;;;4.90;;
7255;SDS011;3669;49.200;9.242;2024-02-21T02:52:55;6.00;;;4.80;;
7255;SDS011;3669;49.200;9.242;2024-02-21T02:55:22;7.15;;;4.93;;
7255;SDS011;3669;49.200;9.242;2024-02-21T02:57:49;7.70;;;4.95;;
7255;SDS011;3669;49.200;9.242;2024-02-21T03:00:16;6.60;;;4.43;;
7255;SDS011;3669;49.200;9.242;2024-02-21T03:02:45;6.35;;;4.70;;
7255;SDS011;3669;49.200;9.242;2024-02-21T03:05:13;7.82;;;4.78;;
7255;SDS011;3669;49.200;9.242;2024-02-21T03:07:41;6.32;;;4.70;;
7255;SDS011;3669;49.200;9.242;2024-02-21T03:10:08;8.27;;;4.68;;
7255;SDS011;3669;49.200;9.242;2024-02-21T03:12:36;8.00;;;4.53;;
7255;SDS011;3669;49.200;9.242;2024-02-21T03:15:03;4.63;;;4.13;;
7255;SDS011;3669;49.200;9.242;2024-02-21T03:17:31;6.60;;;4.38;;
7255;SDS011;3669;49.200;9.242;2024-02-21T03:20:00;5.75;;;4.53;;
7255;SDS011;3669;49.200;9.242;2024-02-21T03:22:31;7.88;;;4.70;;
7255;SDS011;3669;49.200;9.242;2024-02-21T03:24:58;7.32;;;4.68;;
7255;SDS011;3669;49.200;9.242;2024-02-21T03:27:26;6.45;;;4.50;;
7255;SDS011;3669;49.200;9.242;2024-02-21T03:29:53;6.85;;;4.80;;
7255;SDS011;3669;49.200;9.242;2024-02-21T03:32:20;5.57;;;4.35;;
7255;SDS011;3669;49.200;9.242;2024-02-21T03:34:48;5.65;;;4.80;;
7255;SDS011;3669;49.200;9.242;2024-02-21T03:37:15;5.85;;;4.93;;
7255;SDS011;3669;49.200;9.242;2024-02-21T03:39:42;7.05;;;4.70;;
7255;SDS011;3669;49.200;9.242;2024-02-21T03:42:09;6.53;;;4.43;;
7255;SDS011;3669;49.200;9.242;2024-02-21T03:44:36;6.15;;;4.38;;
7255;SDS011;3669;49.200;9.242;2024-02-21T03:47:04;8.55;;;4.65;;
7255;SDS011;3669;49.200;9.242;2024-02-21T03:49:31;6.45;;;4.28;;
7255;SDS011;3669;49.200;9.242;2024-02-21T03:51:59;5.15;;;3.85;;
7255;SDS011;3669;49.200;9.242;2024-02-21T03:54:26;6.03;;;4.45;;
7255;SDS011;3669;49.200;9.242;2024-02-21T03:56:53;6.55;;;4.50;;
7255;SDS011;3669;49.200;9.242;2024-02-21T03:59:22;7.13;;;4.47;;
7255;SDS011;3669;49.200;9.242;2024-02-21T04:01:52;7.47;;;4.53;;
7255;SDS011;3669;49.200;9.242;2024-02-21T04:04:20;6.70;;;4.57;;
7255;SDS011;3669;49.200;9.242;2024-02-21T04:06:50;6.55;;;4.63;;
7255;SDS011;3669;49.200;9.242;2024-02-21T04:09:17;5.18;;;4.68;;
7255;SDS011;3669;49.200;9.242;2024-02-21T04:11:45;5.63;;;4.20;;
7255;SDS011;3669;49.200;9.242;2024-02-21T04:14:12;8.27;;;4.93;;
7255;SDS011;3669;49.200;9.242;2024-02-21T04:16:39;6.65;;;4.22;;
7255;SDS011;3669;49.200;9.242;2024-02-21T04:19:06;5.88;;;4.47;;
7255;SDS011;3669;49.200;9.242;2024-02-21T04:21:33;6.38;;;4.18;;
7255;SDS011;3669;49.200;9.242;2024-02-21T04:24:00;5.78;;;4.38;;
7255;SDS011;3669;49.200;9.242;2024-02-21T04:26:29;10.27;;;9.07;;
7255;SDS011;3669;49.200;9.242;2024-02-21T04:28:56;18.70;;;17.50;;
7255;SDS011;3669;49.200;9.242;2024-02-21T04:31:23;28.38;;;26.73;;
7255;SDS011;3669;49.200;9.242;2024-02-21T04:33:50;27.80;;;26.13;;
7255;SDS011;3669;49.200;9.242;2024-02-21T04:36:18;34.42;;;32.15;;
7255;SDS011;3669;49.200;9.242;2024-02-21T04:38:45;26.75;;;25.27;;
7255;SDS011;3669;49.200;9.242;2024-02-21T04:41:12;23.48;;;21.83;;
7255;SDS011;3669;49.200;9.242;2024-02-21T04:43:39;9.00;;;7.47;;
7255;SDS011;3669;49.200;9.242;2024-02-21T04:46:06;5.07;;;4.45;;
7255;SDS011;3669;49.200;9.242;2024-02-21T04:48:33;4.80;;;3.83;;
7255;SDS011;3669;49.200;9.242;2024-02-21T04:51:00;4.57;;;3.90;;
7255;SDS011;3669;49.200;9.242;2024-02-21T04:53:27;8.00;;;6.30;;
7255;SDS011;3669;49.200;9.242;2024-02-21T04:55:54;6.85;;;4.05;;
7255;SDS011;3669;49.200;9.242;2024-02-21T04:58:22;6.90;;;4.40;;
7255;SDS011;3669;49.200;9.242;2024-02-21T05:03:31;6.60;;;4.63;;
7255;SDS011;3669;49.200;9.242;2024-02-21T05:05:58;4.90;;;4.07;;
7255;SDS011;3669;49.200;9.242;2024-02-21T05:08:26;7.30;;;4.55;;
7255;SDS011;3669;49.200;9.242;2024-02-21T05:10:53;5.50;;;4.20;;
7255;SDS011;3669;49.200;9.242;2024-02-21T05:13:20;6.22;;;4.60;;
7255;SDS011;3669;49.200;9.242;2024-02-21T05:15:48;5.65;;;4.63;;
7255;SDS011;3669;49.200;9.242;2024-02-21T05:18:15;5.18;;;4.50;;
7255;SDS011;3669;49.200;9.242;2024-02-21T05:20:42;7.05;;;4.30;;
7255;SDS011;3669;49.200;9.242;2024-02-21T05:23:09;4.47;;;3.70;;
7255;SDS011;3669;49.200;9.242;2024-02-21T05:25:37;5.28;;;4.50;;
7255;SDS011;3669;49.200;9.242;2024-02-21T05:28:04;7.03;;;4.22;;
7255;SDS011;3669;49.200;9.242;2024-02-21T05:30:32;6.75;;;4.63;;
7255;SDS011;3669;49.200;9.242;2024-02-21T05:33:03;6.20;;;4.68;;
7255;SDS011;3669;49.200;9.242;2024-02-21T05:35:35;6.55;;;5.25;;
7255;SDS011;3669;49.200;9.242;2024-02-21T05:38:03;6.28;;;4.38;;
7255;SDS011;3669;49.200;9.242;2024-02-21T05:40:34;4.75;;;3.92;;
7255;SDS011;3669;49.200;9.242;2024-02-21T05:43:01;6.97;;;4.80;;
7255;SDS011;3669;49.200;9.242;2024-02-21T05:45:28;5.40;;;4.45;;
7255;SDS011;3669;49.200;9.242;2024-02-21T05:47:56;7.47;;;4.80;;
7255;SDS011;3669;49.200;9.242;2024-02-21T05:50:23;5.47;;;4.30;;
7255;SDS011;3669;49.200;9.242;2024-02-21T05:53:00;7.50;;;5.32;;
7255;SDS011;3669;49.200;9.242;2024-02-21T05:55:33;7.45;;;4.78;;
7255;SDS011;3669;49.200;9.242;2024-02-21T05:58:00;4.90;;;4.50;;
7255;SDS011;3669;49.200;9.242;2024-02-21T06:00:28;6.90;;;5.15;;
7255;SDS011;3669;49.200;9.242;2024-02-21T06:02:55;5.45;;;4.60;;
7255;SDS011;3669;49.200;9.242;2024-02-21T06:05:22;5.10;;;4.60;;
7255;SDS011;3669;49.200;9.242;2024-02-21T06:07:49;7.57;;;5.10;;
7255;SDS011;3669;49.200;9.242;2024-02-21T06:10:17;6.68;;;4.93;;
7255;SDS011;3669;49.200;9.242;2024-02-21T06:12:44;8.02;;;5.00;;
7255;SDS011;3669;49.200;9.242;2024-02-21T06:15:11;7.07;;;5.35;;
7255;SDS011;3669;49.200;9.242;2024-02-21T06:17:38;8.23;;;4.90;;
7255;SDS011;3669;49.200;9.242;2024-02-21T06:20:05;7.05;;;4.68;;
7255;SDS011;3669;49.200;9.242;2024-02-21T06:22:32;5.30;;;4.72;;
7255;SDS011;3669;49.200;9.242;2024-02-21T06:25:00;5.53;;;4.93;;
7255;SDS011;3669;49.200;9.242;2024-02-21T06:27:28;7.47;;;4.82;;
7255;SDS011;3669;49.200;9.242;2024-02-21T06:29:55;6.72;;;5.45;;
7255;SDS011;3669;49.200;9.242;2024-02-21T06:32:22;7.07;;;4.53;;
7255;SDS011;3669;49.200;9.242;2024-02-21T06:34:49;6.40;;;4.60;;
7255;SDS011;3669;49.200;9.242;2024-02-21T06:37:16;5.50;;;4.32;;
7255;SDS011;3669;49.200;9.242;2024-02-21T06:39:43;5.10;;;4.60;;
7255;SDS011;3669;49.200;9.242;2024-02-21T06:42:10;17.15;;;15.82;;
7255;SDS011;3669;49.200;9.242;2024-02-21T06:44:37;27.17;;;25.67;;
7255;SDS011;3669;49.200;9.242;2024-02-21T06:47:06;28.55;;;27.00;;
7255;SDS011;3669;49.200;9.242;2024-02-21T06:49:34;30.88;;;28.88;;
7255;SDS011;3669;49.200;9.242;2024-02-21T06:52:03;27.50;;;25.83;;
7255;SDS011;3669;49.200;9.242;2024-02-21T06:54:30;23.27;;;21.90;;
7255;SDS011;3669;49.200;9.242;2024-02-21T06:56:57;33.95;;;31.95;;
7255;SDS011;3669;49.200;9.242;2024-02-21T06:59:25;18.05;;;17.00;;
7255;SDS011;3669;49.200;9.242;2024-02-21T07:01:53;10.45;;;9.57;;
7255;SDS011;3669;49.200;9.242;2024-02-21T07:04:23;8.50;;;5.90;;
7255;SDS011;3669;49.200;9.242;2024-02-21T07:09:13;4.78;;;3.97;;
7255;SDS011;3669;49.200;9.242;2024-02-21T07:11:40;5.38;;;4.88;;
7255;SDS011;3669;49.200;9.242;2024-02-21T07:14:08;4.97;;;4.50;;
7255;SDS011;3669;49.200;9.242;2024-02-21T07:16:35;5.93;;;4.50;;
7255;SDS011;3669;49.200;9.242;2024-02-21T07:19:02;5.93;;;4.50;;
7255;SDS011;3669;49.200;9.242;2024-02-21T07:21:36;7.65;;;4.32;;
7255;SDS011;3669;49.200;9.242;2024-02-21T07:24:08;6.45;;;4.55;;
7255;SDS011;3669;49.200;9.242;2024-02-21T07:26:41;4.57;;;4.22;;
7255;SDS011;3669;49.200;9.242;2024-02-21T07:30:45;6.05;;;5.05;;
7255;SDS011;3669;49.200;9.242;2024-02-21T07:33:12;4.95;;;4.45;;
7255;SDS011;3669;49.200;9.242;2024-02-21T07:35:40;7.57;;;4.60;;
7255;SDS011;3669;49.200;9.242;2024-02-21T07:38:07;5.78;;;4.18;;
7255;SDS011;3669;49.200;9.242;2024-02-21T07:40:38;7.10;;;4.85;;
7255;SDS011;3669;49.200;9.242;2024-02-21T07:43:06;5.40;;;4.63;;
7255;SDS011;3669;49.200;9.242;2024-02-21T07:45:33;7.47;;;4.85;;
7255;SDS011;3669;49.200;9.242;2024-02-21T07:50:35;26.35;;;24.60;;
7255;SDS011;3669;49.200;9.242;2024-02-21T07:53:03;20.48;;;19.20;;
7255;SDS011;3669;49.200;9.242;2024-02-21T07:55:31;15.85;;;14.43;;
7255;SDS011;3669;49.200;9.242;2024-02-21T07:58:00;7.43;;;5.32;;
7255;SDS011;3669;49.200;9.242;2024-02-21T08:00:27;7.95;;;4.75;;
7255;SDS011;3669;49.200;9.242;2024-02-21T08:02:55;5.93;;;4.60;;
7255;SDS011;3669;49.200;9.242;2024-02-21T08:05:23;5.70;;;4.85;;
7255;SDS011;3669;49.200;9.242;2024-02-21T08:07:50;7.40;;;4.70;;
7255;SDS011;3669;49.200;9.242;2024-02-21T08:10:18;6.28;;;5.18;;
7255;SDS011;3669;49.200;9.242;2024-02-21T08:12:45;8.25;;;4.60;;
7255;SDS011;3669;49.200;9.242;2024-02-21T08:15:12;7.97;;;5.38;;
7255;SDS011;3669;49.200;9.242;2024-02-21T08:17:39;5.07;;;4.55;;
7255;SDS011;3669;49.200;9.242;2024-02-21T08:20:06;8.68;;;5.55;;
7255;SDS011;3669;49.200;9.242;2024-02-21T08:22:39;6.82;;;5.35;;
7255;SDS011;3669;49.200;9.242;2024-02-21T08:25:06;7.03;;;4.82;;
7255;SDS011;3669;49.200;9.242;2024-02-21T08:27:34;7.10;;;6.00;;
7255;SDS011;3669;49.200;9.242;2024-02-21T08:30:01;6.43;;;4.78;;
7255;SDS011;3669;49.200;9.242;2024-02-21T08:32:28;7.90;;;4.38;;
7255;SDS011;3669;49.200;9.242;2024-02-21T08:34:55;6.25;;;4.82;;
7255;SDS011;3669;49.200;9.242;2024-02-21T08:37:24;5.90;;;4.93;;
7255;SDS011;3669;49.200;9.242;2024-02-21T08:39:51;5.00;;;3.70;;
7255;SDS011;3669;49.200;9.242;2024-02-21T08:42:22;6.80;;;5.78;;
7255;SDS011;3669;49.200;9.242;2024-02-21T08:51:06;6.45;;;4.80;;
7255;SDS011;3669;49.200;9.242;2024-02-21T08:53:34;5.18;;;4.60;;
7255;SDS011;3669;49.200;9.242;2024-02-21T08:56:10;7.18;;;5.80;;
7255;SDS011;3669;49.200;9.242;2024-02-21T09:00:24;7.05;;;4.60;;
7255;SDS011;3669;49.200;9.242;2024-02-21T09:02:53;4.75;;;4.30;;
7255;SDS011;3669;49.200;9.242;2024-02-21T09:05:21;5.57;;;4.63;;
7255;SDS011;3669;49.200;9.242;2024-02-21T09:07:49;5.97;;;4.93;;
7255;SDS011;3669;49.200;9.242;2024-02-21T09:10:17;6.68;;;4.47;;
7255;SDS011;3669;49.200;9.242;2024-02-21T09:12:48;6.85;;;5.97;;
7255;SDS011;3669;49.200;9.242;2024-02-21T09:16:07;6.32;;;4.35;;
7255;SDS011;3669;49.200;9.242;2024-02-21T09:18:38;5.28;;;4.68;;
7255;SDS011;3669;49.200;9.242;2024-02-21T09:21:26;6.95;;;5.13;;
7255;SDS011;3669;49.200;9.242;2024-02-21T09:24:02;6.38;;;5.07;;
7255;SDS011;3669;49.200;9.242;2024-02-21T09:28:48;6.95;;;5.00;;
7255;SDS011;3669;49.200;9.242;2024-02-21T09:31:18;6.85;;;5.32;;
7255;SDS011;3669;49.200;9.242;2024-02-21T09:33:45;5.20;;;4.38;;
7255;SDS011;3669;49.200;9.242;2024-02-21T09:36:23;15.73;;;14.75;;
7255;SDS011;3669;49.200;9.242;2024-02-21T09:38:57;10.50;;;9.70;;
7255;SDS011;3669;49.200;9.242;2024-02-21T09:41:27;7.32;;;6.50;;
7255;SDS011;3669;49.200;9.242;2024-02-21T09:43:54;6.50;;;4.78;;
7255;SDS011;3669;49.200;9.242;2024-02-21T09:46:40;5.45;;;4.40;;
7255;SDS011;3669;49.200;9.242;2024-02-21T09:49:20;7.57;;;5.38;;
7255;SDS011;3669;49.200;9.242;2024-02-21T09:52:43;6.93;;;4.55;;
7255;SDS011;3669;49.200;9.242;2024-02-21T09:55:13;25.40;;;24.10;;
7255;SDS011;3669;49.200;9.242;2024-02-21T09:57:50;28.33;;;26.92;;
7255;SDS011;3669;49.200;9.242;2024-02-21T10:00:21;6.43;;;5.75;;
7255;SDS011;3669;49.200;9.242;2024-02-21T10:03:13;6.07;;;5.25;;
7255;SDS011;3669;49.200;9.242;2024-02-21T10:05:45;10.68;;;4.53;;
7255;SDS011;3669;49.200;9.242;2024-02-21T10:08:24;6.00;;;4.50;;
7255;SDS011;3669;49.200;9.242;2024-02-21T10:10:51;6.68;;;4.55;;
7255;SDS011;3669;49.200;9.242;2024-02-21T10:13:27;5.38;;;4.10;;
7255;SDS011;3669;49.200;9.242;2024-02-21T10:16:01;7.60;;;4.30;;
7255;SDS011;3669;49.200;9.242;2024-02-21T10:18:29;5.55;;;3.92;;
7255;SDS011;3669;49.200;9.242;2024-02-21T10:21:02;5.47;;;4.20;;
7255;SDS011;3669;49.200;9.242;2024-02-21T10:23:40;7.07;;;4.13;;
7255;SDS011;3669;49.200;9.242;2024-02-21T10:26:08;6.05;;;4.47;;
7255;SDS011;3669;49.200;9.242;2024-02-21T10:28:36;6.68;;;4.10;;
7255;SDS011;3669;49.200;9.242;2024-02-21T10:31:08;5.03;;;4.10;;
7255;SDS011;3669;49.200;9.242;2024-02-21T10:33:36;6.90;;;4.30;;
7255;SDS011;3669;49.200;9.242;2024-02-21T10:36:10;6.97;;;4.63;;
7255;SDS011;3669;49.200;9.242;2024-02-21T10:38:37;5.28;;;4.55;;
7255;SDS011;3669;49.200;9.242;2024-02-21T10:41:05;5.82;;;4.07;;
7255;SDS011;3669;49.200;9.242;2024-02-21T10:43:37;5.25;;;3.55;;
7255;SDS011;3669;49.200;9.242;2024-02-21T10:46:06;4.35;;;3.55;;
7255;SDS011;3669;49.200;9.242;2024-02-21T10:48:44;5.97;;;3.92;;
7255;SDS011;3669;49.200;9.242;2024-02-21T10:51:14;4.38;;;3.65;;
7255;SDS011;3669;49.200;9.242;2024-02-21T10:53:56;7.68;;;3.85;;
7255;SDS011;3669;49.200;9.242;2024-02-21T10:56:34;7.13;;;4.22;;
7255;SDS011;3669;49.200;9.242;2024-02-21T10:59:03;5.38;;;3.97;;
7255;SDS011;3669;49.200;9.242;2024-02-21T11:01:31;5.10;;;4.03;;
7255;SDS011;3669;49.200;9.242;2024-02-21T11:03:59;6.63;;;4.22;;
7255;SDS011;3669;49.200;9.242;2024-02-21T11:06:28;4.25;;;3.65;;
7255;SDS011;3669;49.200;9.242;2024-02-21T11:09:03;5.90;;;3.78;;
7255;SDS011;3669;49.200;9.242;2024-02-21T11:11:34;16.15;;;15.07;;
7255;SDS011;3669;49.200;9.242;2024-02-21T11:14:06;5.38;;;3.67;;
7255;SDS011;3669;49.200;9.242;2024-02-21T11:16:38;6.47;;;3.90;;
7255;SDS011;3669;49.200;9.242;2024-02-21T11:19:19;5.68;;;3.63;;
7255;SDS011;3669;49.200;9.242;2024-02-21T11:21:48;6.40;;;3.83;;
7255;SDS011;3669;49.200;9.242;2024-02-21T11:24:28;5.95;;;3.90;;
7255;SDS011;3669;49.200;9.242;2024-02-21T11:32:09;4.07;;;3.67;;
7255;SDS011;3669;49.200;9.242;2024-02-21T11:34:38;5.38;;;4.22;;
7255;SDS011;3669;49.200;9.242;2024-02-21T11:37:15;3.65;;;3.10;;
7255;SDS011;3669;49.200;9.242;2024-02-21T11:39:42;5.70;;;4.07;;
7255;SDS011;3669;49.200;9.242;2024-02-21T11:42:09;4.53;;;3.45;;
7255;SDS011;3669;49.200;9.242;2024-02-21T11:44:38;8.82;;;4.22;;
7255;SDS011;3669;49.200;9.242;2024-02-21T11:47:08;4.40;;;3.28;;
7255;SDS011;3669;49.200;9.242;2024-02-21T11:49:44;5.80;;;3.50;;
7255;SDS011;3669;49.200;9.242;2024-02-21T11:52:12;5.32;;;3.30;;
7255;SDS011;3669;49.200;9.242;2024-02-21T11:54:41;6.10;;;3.70;;
7255;SDS011;3669;49.200;9.242;2024-02-21T11:57:08;6.80;;;3.60;;
7255;SDS011;3669;49.200;9.242;2024-02-21T11:59:35;5.78;;;3.40;;
7255;SDS011;3669;49.200;9.242;2024-02-21T12:02:03;7.00;;;4.30;;
7255;SDS011;3669;49.200;9.242;2024-02-21T12:04:30;5.10;;;3.85;;
7255;SDS011;3669;49.200;9.242;2024-02-21T12:06:57;6.15;;;3.80;;
7255;SDS011;3669;49.200;9.242;2024-02-21T12:09:25;5.43;;;3.72;;
7255;SDS011;3669;49.200;9.242;2024-02-21T12:11:59;4.18;;;3.40;;
7255;SDS011;3669;49.200;9.242;2024-02-21T12:14:27;7.07;;;6.43;;
7255;SDS011;3669;49.200;9.242;2024-02-21T12:16:54;13.82;;;12.82;;
7255;SDS011;3669;49.200;9.242;2024-02-21T12:19:21;25.23;;;23.48;;
7255;SDS011;3669;49.200;9.242;2024-02-21T12:21:49;24.08;;;22.83;;
7255;SDS011;3669;49.200;9.242;2024-02-21T12:26:43;5.70;;;3.85;;
7255;SDS011;3669;49.200;9.242;2024-02-21T12:29:11;5.28;;;3.92;;
7255;SDS011;3669;49.200;9.242;2024-02-21T12:31:38;8.82;;;3.72;;
7255;SDS011;3669;49.200;9.242;2024-02-21T12:34:05;3.90;;;3.47;;
7255;SDS011;3669;49.200;9.242;2024-02-21T12:36:36;4.78;;;3.45;;
7255;SDS011;3669;49.200;9.242;2024-02-21T12:39:03;6.25;;;3.53;;
7255;SDS011;3669;49.200;9.242;2024-02-21T12:41:30;6.47;;;3.83;;
7255;SDS011;3669;49.200;9.242;2024-02-21T12:43:59;4.97;;;3.40;;
7255;SDS011;3669;49.200;9.242;2024-02-21T12:46:26;4.95;;;3.35;;
7255;SDS011;3669;49.200;9.242;2024-02-21T12:48:53;5.05;;;3.33;;
7255;SDS011;3669;49.200;9.242;2024-02-21T12:51:20;4.63;;;3.65;;
7255;SDS011;3669;49.200;9.242;2024-02-21T12:53:48;5.47;;;3.55;;
7255;SDS011;3669;49.200;9.242;2024-02-21T12:56:15;5.22;;;3.03;;
7255;SDS011;3669;49.200;9.242;2024-02-21T12:58:43;4.20;;;3.50;;
7255;SDS011;3669;49.200;9.242;2024-02-21T13:01:10;12.05;;;11.23;;
7255;SDS011;3669;49.200;9.242;2024-02-21T13:03:37;7.18;;;3.67;;
7255;SDS011;3669;49.200;9.242;2024-02-21T13:06:05;3.92;;;3.30;;
7255;SDS011;3669;49.200;9.242;2024-02-21T13:08:36;6.07;;;3.60;;
7255;SDS011;3669;49.200;9.242;2024-02-21T13:11:04;4.57;;;3.10;;
7255;SDS011;3669;49.200;9.242;2024-02-21T13:13:31;5.30;;;3.80;;
7255;SDS011;3669;49.200;9.242;2024-02-21T13:15:59;5.35;;;3.67;;
7255;SDS011;3669;49.200;9.242;2024-02-21T13:18:26;4.97;;;3.28;;
7255;SDS011;3669;49.200;9.242;2024-02-21T13:20:53;7.28;;;4.03;;
7255;SDS011;3669;49.200;9.242;2024-02-21T13:23:20;3.92;;;3.42;;
7255;SDS011;3669;49.200;9.242;2024-02-21T13:25:48;4.30;;;3.20;;
7255;SDS011;3669;49.200;9.242;2024-02-21T13:28:16;5.53;;;3.83;;
7255;SDS011;3669;49.200;9.242;2024-02-21T13:30:43;6.50;;;3.67;;
7255;SDS011;3669;49.200;9.242;2024-02-21T13:33:11;4.03;;;3.55;;
7255;SDS011;3669;49.200;9.242;2024-02-21T13:35:38;3.67;;;3.38;;
7255;SDS011;3669;49.200;9.242;2024-02-21T13:38:06;4.63;;;3.78;;
7255;SDS011;3669;49.200;9.242;2024-02-21T13:40:33;6.97;;;3.58;;
7255;SDS011;3669;49.200;9.242;2024-02-21T13:43:00;5.85;;;3.72;;
7255;SDS011;3669;49.200;9.242;2024-02-21T13:45:27;6.60;;;3.30;;
7255;SDS011;3669;49.200;9.242;2024-02-21T13:47:56;5.30;;;3.42;;
7255;SDS011;3669;49.200;9.242;2024-02-21T13:50:30;4.13;;;3.40;;
7255;SDS011;3669;49.200;9.242;2024-02-21T13:53:00;5.63;;;3.40;;
7255;SDS011;3669;49.200;9.242;2024-02-21T13:55:27;6.30;;;3.67;;
7255;SDS011;3669;49.200;9.242;2024-02-21T13:57:55;5.10;;;3.50;;
7255;SDS011;3669;49.200;9.242;2024-02-21T14:00:23;5.53;;;3.40;;
7255;SDS011;3669;49.200;9.242;2024-02-21T14:02:50;5.68;;;3.83;;
7255;SDS011;3669;49.200;9.242;2024-02-21T14:05:18;5.10;;;3.22;;
7255;SDS011;3669;49.200;9.242;2024-02-21T14:07:45;5.07;;;3.25;;
7255;SDS011;3669;49.200;9.242;2024-02-21T14:10:12;5.05;;;3.35;;
7255;SDS011;3669;49.200;9.242;2024-02-21T14:12:39;4.13;;;3.00;;
7255;SDS011;3669;49.200;9.242;2024-02-21T14:15:06;20.80;;;19.65;;
7255;SDS011;3669;49.200;9.242;2024-02-21T14:17:34;31.75;;;29.90;;
7255;SDS011;3669;49.200;9.242;2024-02-21T14:20:02;27.25;;;25.73;;
7255;SDS011;3669;49.200;9.242;2024-02-21T14:22:30;29.80;;;28.17;;
7255;SDS011;3669;49.200;9.242;2024-02-21T14:24:58;25.83;;;24.25;;
7255;SDS011;3669;49.200;9.242;2024-02-21T14:27:24;16.08;;;14.95;;
7255;SDS011;3669;49.200;9.242;2024-02-21T14:29:51;6.78;;;5.18;;
7255;SDS011;3669;49.200;9.242;2024-02-21T14:32:19;4.50;;;3.42;;
7255;SDS011;3669;49.200;9.242;2024-02-21T14:34:46;4.32;;;3.53;;
7255;SDS011;3669;49.200;9.242;2024-02-21T14:37:14;4.40;;;3.08;;
7255;SDS011;3669;49.200;9.242;2024-02-21T14:39:42;3.42;;;3.13;;
7255;SDS011;3669;49.200;9.242;2024-02-21T14:42:09;4.20;;;3.42;;
7255;SDS011;3669;49.200;9.242;2024-02-21T14:44:36;4.05;;;3.65;;
7255;SDS011;3669;49.200;9.242;2024-02-21T14:47:03;3.22;;;2.92;;
7255;SDS011;3669;49.200;9.242;2024-02-21T14:49:31;4.07;;;3.08;;
7255;SDS011;3669;49.200;9.242;2024-02-21T14:51:58;3.35;;;2.90;;
7255;SDS011;3669;49.200;9.242;2024-02-21T14:54:25;4.63;;;3.08;;
7255;SDS011;3669;49.200;9.242;2024-02-21T14:56:52;4.47;;;3.22;;
7255;SDS011;3669;49.200;9.242;2024-02-21T14:59:20;4.13;;;3.08;;
7255;SDS011;3669;49.200;9.242;2024-02-21T15:01:47;4.53;;;3.20;;
7255;SDS011;3669;49.200;9.242;2024-02-21T15:04:14;4.25;;;3.22;;
7255;SDS011;3669;49.200;9.242;2024-02-21T15:06:41;4.15;;;3.17;;
7255;SDS011;3669;49.200;9.242;2024-02-21T15:09:10;5.45;;;3.50;;
7255;SDS011;3669;49.200;9.242;2024-02-21T15:11:38;15.57;;;14.48;;
7255;SDS011;3669;49.200;9.242;2024-02-21T15:14:05;4.75;;;3.17;;
7255;SDS011;3669;49.200;9.242;2024-02-21T15:16:32;4.90;;;3.25;;
7255;SDS011;3669;49.200;9.242;2024-02-21T15:18:59;4.45;;;2.67;;
7255;SDS011;3669;49.200;9.242;2024-02-21T15:21:26;4.20;;;3.40;;
7255;SDS011;3669;49.200;9.242;2024-02-21T15:23:53;4.30;;;3.05;;
7255;SDS011;3669;49.200;9.242;2024-02-21T15:26:20;4.57;;;3.00;;
7255;SDS011;3669;49.200;9.242;2024-02-21T15:28:50;3.78;;;3.17;;
7255;SDS011;3669;49.200;9.242;2024-02-21T15:31:21;3.83;;;3.33;;
7255;SDS011;3669;49.200;9.242;2024-02-21T15:33:49;3.92;;;3.22;;
7255;SDS011;3669;49.200;9.242;2024-02-21T15:36:17;3.72;;;3.00;;
7255;SDS011;3669;49.200;9.242;2024-02-21T15:38:48;4.68;;;2.80;;
7255;SDS011;3669;49.200;9.242;2024-02-21T15:41:15;3.22;;;3.00;;
7255;SDS011;3669;49.200;9.242;2024-02-21T15:43:42;5.68;;;3.42;;
7255;SDS011;3669;49.200;9.242;2024-02-21T15:46:13;3.88;;;3.58;;
7255;SDS011;3669;49.200;9.242;2024-02-21T15:48:40;5.45;;;3.85;;
7255;SDS011;3669;49.200;9.242;2024-02-21T15:51:08;5.70;;;3.88;;